CheckWX is a tool to help pilots better visualize weather data.  It is not intended as a substitute for an official pre-flight weather briefing.

04:45:14 UTC

LJMB TAF
Maribor Airport
Slovenia
TAF LJMB 280200Z 2803/2903 36005KT 9999 SCT050 TEMPO 2807/2818 36015G30KT TEMPO 2804/2814 SCT050 BKN070 BECMG 2818/2821 19005KT CAVOK

Feb-28@
03:00 UTC

Feb-28 @ 03:00 UTC

Feb-28@
18:00 UTC

Feb-28 @ 18:00 UTC

TAF LJMB 280200Z 2803/2903 36005KT 9999 SCT050
Wind
  • 360° at 5 KTS
Cloud Levels
  • Scattered at 5,000' AGL

Feb-28@
04:00 UTC

Feb-28 @ 04:00 UTC

Feb-28@
14:00 UTC

Feb-28 @ 14:00 UTC

TEMPO 2804/2814 SCT050 BKN070

Temporary

Temporary Changes expected for less than half the time period

Cloud Levels
  • Scattered at 5,000' AGL
  • Broken at 7,000' AGL

Feb-28@
07:00 UTC

Feb-28 @ 07:00 UTC

Feb-28@
18:00 UTC

Feb-28 @ 18:00 UTC

TEMPO 2807/2818 36015G30KT

Temporary

Temporary Changes expected for less than half the time period

Wind
  • 360° at 15 KTS
  • {Gusting to 30 KTS

Feb-28@
18:00 UTC

Feb-28 @ 18:00 UTC

Feb-29@
03:00 UTC

Feb-29 @ 03:00 UTC

BECMG 2818/2821 19005KT CAVOK

Becoming

Becoming Conditions expected by Fri, Feb 28, 2020 @ 21:00 UTC

Wind
  • 190° at 5 KTS
Conditions
No significant weather
Cloud Levels
  • No significant clouds